This is the latest recevied weather packets stored in our database for station/object KJ4HF. If no packets are shown the sender has not sent any weather packets the latest 10 day(s).
| Time | Temp. | Humidity | Pressure | Rain* | Wind** | Luminosity | Snow |
|---|---|---|---|---|---|---|---|
| 1777577745 | 23.89° C | 44% | 1009.4 hPa | 0 mm | - | 946 W/m² | - |
| 1777576555 | 22.78° C | 49% | 1009.8 hPa | 0 mm | - | 960 W/m² | - |
| 1777571156 | 21.11° C | 53% | 1010.2 hPa | 0 mm | - | 306 W/m² | - |
| 1777569347 | 22.22° C | 50% | 1010.2 hPa | 0 mm | - | 1074 W/m² | - |
| 1777568141 | 22.22° C | 50% | 1010.2 hPa | 0 mm | - | 1016 W/m² | - |
| 1777565442 | 20.56° C | 53% | 1010.7 hPa | 0 mm | - | 939 W/m² | - |
| 1777564543 | 20.56° C | 55% | 1010.7 hPa | 0 mm | - | 919 W/m² | - |
| 1777564243 | 20.56° C | 51% | 1010.8 hPa | 0 mm | - | 912 W/m² | - |
| 1777563642 | 20° C | 58% | 1010.9 hPa | 0 mm | - | 893 W/m² | - |
| 1777562158 | 19.44° C | 62% | 1011.3 hPa | 0 mm | - | 844 W/m² | - |
| 1777561844 | 19.44° C | 61% | 1011.3 hPa | 0 mm | - | 835 W/m² | - |
| 1777561250 | 18.89° C | 69% | 1011.3 hPa | 0 mm | - | 812 W/m² | - |
| 1777560646 | 18.33° C | 69% | 1011.3 hPa | 0 mm | - | 831 W/m² | - |
| 1777560354 | 17.78° C | 75% | 1011.4 hPa | 0 mm | - | 844 W/m² | - |
| 1777560044 | 16.67° C | 73% | 1011.6 hPa | 0 mm | - | 552 W/m² | - |
| 1777554960 | 15° C | 87% | 1012.2 hPa | 0 mm | - | 56 W/m² | - |
| 1777554343 | 14.44° C | 86% | 1012 hPa | 0 mm | - | 130 W/m² | - |
| 1777554053 | 14.44° C | 87% | 1012 hPa | 0 mm | - | 116 W/m² | - |
| 1777553746 | 13.89° C | 87% | 1012.1 hPa | 0 mm | - | 88 W/m² | - |
| 1777550146 | 13.33° C | 87% | 1011.2 hPa | 0 mm | - | 46 W/m² | - |
| 1777548342 | 13.33° C | 86% | 1010.9 hPa | 0 mm | - | 21 W/m² | - |
| 1777546244 | 13.33° C | 84% | 1009.8 hPa | 0 mm | - | 0 W/m² | - |
| 1777545645 | 13.33° C | 83% | 1009.7 hPa | 0 mm | - | 0 W/m² | - |
| 1777545345 | 13.33° C | 82% | 1009.9 hPa | 0 mm | - | 0 W/m² | - |
| 1777545059 | 13.89° C | 85% | 1009.8 hPa | 0 mm | - | 0 W/m² | - |
* Rain latest hour (hover to see other rain measurements)
** Current wind speed in m/s (hover to see current wind gust speed)